Time,TemperatureF,DewpointF,PressureIn,WindDirection,WindDirectionDegrees,WindSpeedMPH,WindSpeedGustMPH,Humidity,HourlyPrecipIn,Conditions,Clouds,dailyrainin,SoftwareType,DateUTC
2015-01-31 00:00:00,25.9,21.4,30.08,WSW,248,2.9,2.9,83,0.00,,,0.00,WUHU216HW,2015-01-31 06:00:00,
2015-01-31 00:02:00,25.9,21.4,30.08,WSW,248,2.9,2.9,83,0.00,,,0.00,WUHU216HW,2015-01-31 06:02:00,
2015-01-31 00:07:00,25.9,21.4,30.08,WSW,248,2.9,2.9,83,0.00,,,0.00,WUHU216HW,2015-01-31 06:07:00,
2015-01-31 00:30:00,25.7,21.2,30.07,SW,225,2.7,2.7,83,0.00,,,0.00,WUHU216HW,2015-01-31 06:30:00,
2015-01-31 00:32:00,25.7,21.2,30.07,WSW,248,1.1,1.1,83,0.00,,,0.00,WUHU216HW,2015-01-31 06:32:00,
2015-01-31 00:37:00,25.7,21.2,30.07,SW,225,2.7,2.7,83,0.00,,,0.00,WUHU216HW,2015-01-31 06:37:00,
2015-01-31 01:00:00,26.5,22.8,30.06,WSW,248,3.1,3.1,86,0.00,,,0.00,WUHU216HW,2015-01-31 07:00:00,
2015-01-31 01:02:00,26.5,22.8,30.06,WSW,248,3.1,3.1,86,0.00,,,0.00,WUHU216HW,2015-01-31 07:02:00,
2015-01-31 01:07:00,26.5,22.8,30.06,WSW,248,3.1,3.1,86,0.00,,,0.00,WUHU216HW,2015-01-31 07:07:00,
2015-01-31 01:30:00,26.8,22.9,30.06,SW,225,4.0,4.0,85,0.00,,,0.00,WUHU216HW,2015-01-31 07:30:00,
2015-01-31 01:32:00,26.8,22.9,30.06,SW,225,4.0,4.0,85,0.00,,,0.00,WUHU216HW,2015-01-31 07:32:00,
2015-01-31 01:37:00,26.8,22.9,30.06,SW,225,4.0,4.0,85,0.00,,,0.00,WUHU216HW,2015-01-31 07:37:00,
2015-01-31 02:00:00,26.3,22.3,30.06,SW,225,0.9,0.9,85,0.00,,,0.00,WUHU216HW,2015-01-31 08:00:00,
2015-01-31 02:02:00,26.3,22.3,30.07,SW,225,0.9,0.9,85,0.00,,,0.00,WUHU216HW,2015-01-31 08:02:00,
2015-01-31 02:07:00,26.3,22.3,30.06,SW,225,0.9,0.9,85,0.00,,,0.00,WUHU216HW,2015-01-31 08:07:00,
2015-01-31 02:30:00,25.6,21.7,30.07,SW,225,0.4,0.4,85,0.00,,,0.00,WUHU216HW,2015-01-31 08:30:00,
2015-01-31 02:32:00,25.6,21.7,30.07,SW,225,0.4,0.4,85,0.00,,,0.00,WUHU216HW,2015-01-31 08:32:00,
2015-01-31 02:37:00,25.6,21.7,30.07,SW,225,0.4,0.4,85,0.00,,,0.00,WUHU216HW,2015-01-31 08:37:00,
2015-01-31 03:00:00,24.3,20.4,30.06,SW,225,0.0,0.0,85,0.00,,,0.00,WUHU216HW,2015-01-31 09:00:00,
2015-01-31 03:02:00,24.3,20.4,30.06,SW,225,0.0,0.0,85,0.00,,,0.00,WUHU216HW,2015-01-31 09:02:00,
2015-01-31 03:07:00,24.3,20.4,30.06,SW,225,0.0,0.0,85,0.00,,,0.00,WUHU216HW,2015-01-31 09:07:00,
2015-01-31 03:30:00,23.0,19.2,30.05,WNW,293,1.1,1.1,85,0.00,,,0.00,WUHU216HW,2015-01-31 09:30:00,
2015-01-31 03:32:00,23.0,19.2,30.05,WNW,293,1.1,1.1,85,0.00,,,0.00,WUHU216HW,2015-01-31 09:32:00,
2015-01-31 03:37:00,23.0,19.2,30.05,WNW,293,1.1,1.1,85,0.00,,,0.00,WUHU216HW,2015-01-31 09:37:00,
2015-01-31 04:00:00,22.3,18.5,30.06,West,270,0.2,0.4,85,0.00,,,0.00,WUHU216HW,2015-01-31 10:00:00,
2015-01-31 04:02:00,22.3,18.5,30.06,West,270,0.4,0.4,85,0.00,,,0.00,WUHU216HW,2015-01-31 10:02:00,
2015-01-31 04:07:00,22.3,18.5,30.06,West,270,0.2,0.4,85,0.00,,,0.00,WUHU216HW,2015-01-31 10:07:00,
2015-01-31 04:30:00,21.1,17.5,30.06,West,270,0.2,0.2,86,0.00,,,0.00,WUHU216HW,2015-01-31 10:30:00,
2015-01-31 04:32:00,21.1,17.5,30.06,West,270,0.2,0.2,86,0.00,,,0.00,WUHU216HW,2015-01-31 10:32:00,
2015-01-31 04:37:00,21.1,17.5,30.06,West,270,0.2,0.2,86,0.00,,,0.00,WUHU216HW,2015-01-31 10:37:00,
2015-01-31 05:00:00,20.5,16.9,30.07,ESE,113,0.0,0.0,86,0.00,,,0.00,WUHU216HW,2015-01-31 11:00:00,
2015-01-31 05:02:00,20.5,16.9,30.07,ESE,113,0.0,0.0,86,0.00,,,0.00,WUHU216HW,2015-01-31 11:02:00,
2015-01-31 05:07:00,20.5,16.9,30.07,ESE,113,0.0,0.0,86,0.00,,,0.00,WUHU216HW,2015-01-31 11:07:00,
2015-01-31 05:30:00,19.3,15.7,30.07,ESE,113,0.0,0.0,86,0.00,,,0.00,WUHU216HW,2015-01-31 11:30:00,
2015-01-31 05:32:00,19.3,15.7,30.07,ESE,113,0.0,0.0,86,0.00,,,0.00,WUHU216HW,2015-01-31 11:32:00,
2015-01-31 05:37:00,19.3,15.7,30.07,ESE,113,0.0,0.0,86,0.00,,,0.00,WUHU216HW,2015-01-31 11:37:00,
2015-01-31 06:00:00,18.0,14.4,30.08,ESE,113,0.0,0.0,86,0.00,,,0.00,WUHU216HW,2015-01-31 12:00:00,
2015-01-31 06:02:00,18.0,14.4,30.08,ESE,113,0.0,0.0,86,0.00,,,0.00,WUHU216HW,2015-01-31 12:02:00,
2015-01-31 06:07:00,18.0,14.4,30.08,ESE,113,0.0,0.0,86,0.00,,,0.00,WUHU216HW,2015-01-31 12:07:00,
2015-01-31 06:30:00,18.9,15.6,30.09,ESE,113,0.0,0.0,87,0.00,,,0.00,WUHU216HW,2015-01-31 12:30:00,
2015-01-31 06:32:00,18.7,15.4,30.09,ESE,113,0.0,0.0,87,0.00,,,0.00,WUHU216HW,2015-01-31 12:32:00,
2015-01-31 06:37:00,18.9,15.6,30.09,ESE,113,0.0,0.0,87,0.00,,,0.00,WUHU216HW,2015-01-31 12:37:00,
2015-01-31 07:00:00,19.4,16.1,30.10,NE,45,0.0,0.0,87,0.00,,,0.00,WUHU216HW,2015-01-31 13:00:00,
2015-01-31 07:02:00,19.6,16.3,30.10,NE,45,0.0,0.0,87,0.00,,,0.00,WUHU216HW,2015-01-31 13:02:00,
2015-01-31 07:07:00,19.4,16.1,30.10,NE,45,0.0,0.0,87,0.00,,,0.00,WUHU216HW,2015-01-31 13:07:00,
2015-01-31 07:30:00,19.3,15.9,30.09,NE,45,0.0,0.0,87,0.00,,,0.00,WUHU216HW,2015-01-31 13:30:00,
2015-01-31 07:32:00,19.3,15.9,30.09,NE,45,0.0,0.0,87,0.00,,,0.00,WUHU216HW,2015-01-31 13:32:00,
2015-01-31 07:37:00,19.3,15.9,30.09,NE,45,0.0,0.0,87,0.00,,,0.00,WUHU216HW,2015-01-31 13:37:00,
2015-01-31 08:00:00,19.8,16.5,30.10,North,0,0.9,0.9,87,0.00,,,0.00,WUHU216HW,2015-01-31 14:00:00,
2015-01-31 08:02:00,19.8,16.5,30.10,North,0,0.7,0.7,87,0.00,,,0.00,WUHU216HW,2015-01-31 14:02:00,
2015-01-31 08:07:00,19.8,16.5,30.10,North,0,0.9,0.9,87,0.00,,,0.00,WUHU216HW,2015-01-31 14:07:00,
2015-01-31 08:30:00,23.4,20.6,30.12,NNE,23,0.9,0.9,89,0.00,,,0.00,WUHU216HW,2015-01-31 14:30:00,
2015-01-31 08:32:00,23.4,20.6,30.12,North,0,0.0,0.0,89,0.00,,,0.00,WUHU216HW,2015-01-31 14:32:00,
2015-01-31 08:37:00,23.4,20.6,30.12,NNE,23,0.9,0.9,89,0.00,,,0.00,WUHU216HW,2015-01-31 14:37:00,
2015-01-31 09:00:00,24.7,21.9,30.12,NNE,23,0.9,2.2,89,0.00,,,0.00,WUHU216HW,2015-01-31 15:00:00,
2015-01-31 09:02:00,24.7,21.9,30.12,North,0,2.2,2.2,89,0.00,,,0.00,WUHU216HW,2015-01-31 15:02:00,
2015-01-31 09:07:00,24.7,21.9,30.12,NNE,23,0.9,2.2,89,0.00,,,0.00,WUHU216HW,2015-01-31 15:07:00,
2015-01-31 09:30:00,25.7,23.2,30.13,North,0,2.0,2.0,90,0.00,,,0.00,WUHU216HW,2015-01-31 15:30:00,
2015-01-31 09:32:00,25.9,23.4,30.13,North,0,2.0,2.0,90,0.00,,,0.00,WUHU216HW,2015-01-31 15:32:00,
2015-01-31 09:37:00,25.7,23.2,30.13,North,0,2.0,2.0,90,0.00,,,0.00,WUHU216HW,2015-01-31 15:37:00,
2015-01-31 10:00:00,26.8,24.0,30.13,NNW,338,0.4,0.4,89,0.00,,,0.00,WUHU216HW,2015-01-31 16:00:00,
2015-01-31 10:02:00,26.8,24.0,30.13,NNW,338,0.2,0.2,89,0.00,,,0.00,WUHU216HW,2015-01-31 16:02:00,
2015-01-31 10:07:00,26.8,24.0,30.13,NNW,338,0.4,0.4,89,0.00,,,0.00,WUHU216HW,2015-01-31 16:07:00,
2015-01-31 10:30:00,27.9,24.9,30.14,East,90,2.2,2.2,88,0.00,,,0.00,WUHU216HW,2015-01-31 16:30:00,
2015-01-31 10:32:00,27.9,24.9,30.14,East,90,2.0,2.0,88,0.00,,,0.00,WUHU216HW,2015-01-31 16:32:00,
2015-01-31 10:37:00,27.9,24.9,30.14,East,90,2.2,2.2,88,0.00,,,0.00,WUHU216HW,2015-01-31 16:37:00,
2015-01-31 11:00:00,28.4,25.0,30.14,NE,45,2.7,2.7,87,0.00,,,0.00,WUHU216HW,2015-01-31 17:00:00,
2015-01-31 11:02:00,28.4,25.0,30.14,NE,45,2.7,2.7,87,0.00,,,0.00,WUHU216HW,2015-01-31 17:02:00,
2015-01-31 11:07:00,28.4,25.0,30.14,NE,45,2.7,2.7,87,0.00,,,0.00,WUHU216HW,2015-01-31 17:07:00,
2015-01-31 11:30:00,28.8,24.8,30.14,NE,45,4.0,4.0,85,0.00,,,0.00,WUHU216HW,2015-01-31 17:30:00,
2015-01-31 11:32:00,28.8,24.8,30.14,NE,45,4.0,4.0,85,0.00,,,0.00,WUHU216HW,2015-01-31 17:32:00,
2015-01-31 11:37:00,28.8,24.8,30.14,NE,45,4.0,4.0,85,0.00,,,0.00,WUHU216HW,2015-01-31 17:37:00,
2015-01-31 12:00:00,29.2,24.7,30.13,North,0,6.3,6.3,83,0.00,,,0.00,WUHU216HW,2015-01-31 18:00:00,
2015-01-31 12:02:00,29.2,24.7,30.13,North,0,6.3,6.3,83,0.00,,,0.00,WUHU216HW,2015-01-31 18:02:00,
2015-01-31 12:07:00,29.2,24.7,30.13,North,0,6.3,6.3,83,0.00,,,0.00,WUHU216HW,2015-01-31 18:07:00,
2015-01-31 12:30:00,29.5,24.7,30.13,NNE,23,6.3,6.3,82,0.00,,,0.00,WUHU216HW,2015-01-31 18:30:00,
2015-01-31 12:32:00,29.5,24.7,30.13,North,0,5.8,5.8,82,0.00,,,0.00,WUHU216HW,2015-01-31 18:32:00,
2015-01-31 12:37:00,29.5,24.7,30.13,NNE,23,6.3,6.3,82,0.00,,,0.00,WUHU216HW,2015-01-31 18:37:00,
2015-01-31 13:00:00,29.5,23.8,30.13,North,0,4.0,4.0,79,0.00,,,0.00,WUHU216HW,2015-01-31 19:00:00,
2015-01-31 13:02:00,29.5,24.1,30.13,NE,45,4.0,4.0,80,0.00,,,0.00,WUHU216HW,2015-01-31 19:02:00,
2015-01-31 13:07:00,29.5,23.8,30.13,North,0,4.0,4.0,79,0.00,,,0.00,WUHU216HW,2015-01-31 19:07:00,
2015-01-31 13:30:00,29.5,23.8,30.12,NE,45,4.5,6.9,79,0.00,,,0.00,WUHU216HW,2015-01-31 19:30:00,
2015-01-31 13:32:00,29.5,23.8,30.12,NNE,23,6.9,6.9,79,0.00,,,0.00,WUHU216HW,2015-01-31 19:32:00,
2015-01-31 13:37:00,29.5,23.8,30.12,NE,45,4.5,6.9,79,0.00,,,0.00,WUHU216HW,2015-01-31 19:37:00,
2015-01-31 14:00:00,29.5,23.8,30.12,North,0,3.4,4.7,79,0.00,,,0.00,WUHU216HW,2015-01-31 20:00:00,
2015-01-31 14:02:00,29.5,23.8,30.12,North,0,4.7,4.7,79,0.00,,,0.00,WUHU216HW,2015-01-31 20:02:00,
2015-01-31 14:07:00,29.5,23.8,30.12,North,0,3.4,4.7,79,0.00,,,0.00,WUHU216HW,2015-01-31 20:07:00,
2015-01-31 14:30:00,29.3,23.3,30.12,NE,45,3.4,3.4,78,0.00,,,0.00,WUHU216HW,2015-01-31 20:30:00,
2015-01-31 14:32:00,29.3,23.3,30.12,NE,45,3.4,3.4,78,0.00,,,0.00,WUHU216HW,2015-01-31 20:32:00,
2015-01-31 14:37:00,29.3,23.3,30.12,NE,45,3.4,3.4,78,0.00,,,0.00,WUHU216HW,2015-01-31 20:37:00,
2015-01-31 15:00:00,28.8,22.8,30.12,NE,45,4.9,4.9,78,0.00,,,0.00,WUHU216HW,2015-01-31 21:00:00,
2015-01-31 15:02:00,28.8,22.8,30.12,NE,45,4.9,4.9,78,0.00,,,0.00,WUHU216HW,2015-01-31 21:02:00,
2015-01-31 15:07:00,28.8,22.8,30.12,NE,45,4.9,4.9,78,0.00,,,0.00,WUHU216HW,2015-01-31 21:07:00,
2015-01-31 15:30:00,28.8,22.1,30.12,SSE,158,4.0,4.0,76,0.00,,,0.00,WUHU216HW,2015-01-31 21:30:00,
2015-01-31 15:32:00,28.8,22.1,30.12,SSE,158,4.0,4.0,76,0.00,,,0.00,WUHU216HW,2015-01-31 21:32:00,
2015-01-31 15:37:00,28.8,22.1,30.12,SSE,158,4.0,4.0,76,0.00,,,0.00,WUHU216HW,2015-01-31 21:37:00,
2015-01-31 16:00:00,28.4,21.8,30.12,ENE,68,8.7,8.7,76,0.00,,,0.00,WUHU216HW,2015-01-31 22:00:00,
2015-01-31 16:02:00,28.4,21.8,30.12,NNE,23,6.3,6.3,76,0.00,,,0.00,WUHU216HW,2015-01-31 22:02:00,
2015-01-31 16:07:00,28.4,21.8,30.12,ENE,68,8.7,8.7,76,0.00,,,0.00,WUHU216HW,2015-01-31 22:07:00,
2015-01-31 16:30:00,27.9,21.2,30.12,NNE,23,6.7,6.7,76,0.00,,,0.00,WUHU216HW,2015-01-31 22:30:00,
2015-01-31 16:32:00,27.9,21.2,30.12,NNE,23,6.7,6.7,76,0.00,,,0.00,WUHU216HW,2015-01-31 22:32:00,
2015-01-31 16:37:00,27.9,21.2,30.12,NNE,23,6.7,6.7,76,0.00,,,0.00,WUHU216HW,2015-01-31 22:37:00,
2015-01-31 17:00:00,27.7,21.4,30.12,East,90,2.5,3.8,77,0.00,,,0.00,WUHU216HW,2015-01-31 23:00:00,
2015-01-31 17:02:00,27.5,21.3,30.12,ESE,113,2.9,2.9,77,0.00,,,0.00,WUHU216HW,2015-01-31 23:02:00,
2015-01-31 17:07:00,27.7,21.4,30.12,East,90,2.5,3.8,77,0.00,,,0.00,WUHU216HW,2015-01-31 23:07:00,
2015-01-31 17:30:00,27.2,20.5,30.13,ENE,68,3.6,3.6,76,0.00,,,0.00,WUHU216HW,2015-01-31 23:30:00,
2015-01-31 17:32:00,27.2,20.5,30.13,ENE,68,3.6,3.6,76,0.00,,,0.00,WUHU216HW,2015-01-31 23:32:00,
2015-01-31 17:37:00,27.2,20.5,30.13,ENE,68,3.6,3.6,76,0.00,,,0.00,WUHU216HW,2015-01-31 23:37:00,
2015-01-31 18:00:00,27.0,20.1,30.12,East,90,2.2,3.8,75,0.00,,,0.00,WUHU216HW,2015-02-01 00:00:00,
2015-01-31 18:02:00,27.0,20.1,30.12,NNE,23,3.8,3.8,75,0.00,,,0.00,WUHU216HW,2015-02-01 00:02:00,
2015-01-31 18:07:00,27.0,20.1,30.12,East,90,2.2,3.8,75,0.00,,,0.00,WUHU216HW,2015-02-01 00:07:00,
2015-01-31 18:30:00,26.6,19.7,30.11,NE,45,4.0,4.0,75,0.00,,,0.00,WUHU216HW,2015-02-01 00:30:00,
2015-01-31 18:32:00,26.6,19.7,30.11,NE,45,4.0,4.0,75,0.00,,,0.00,WUHU216HW,2015-02-01 00:32:00,
2015-01-31 18:37:00,26.6,19.7,30.11,NE,45,4.0,4.0,75,0.00,,,0.00,WUHU216HW,2015-02-01 00:37:00,
2015-01-31 19:00:00,26.5,19.9,30.12,NNE,23,4.5,4.9,76,0.00,,,0.00,WUHU216HW,2015-02-01 01:00:00,
2015-01-31 19:02:00,26.5,19.9,30.12,NNE,23,4.7,4.7,76,0.00,,,0.00,WUHU216HW,2015-02-01 01:02:00,
2015-01-31 19:07:00,26.5,19.9,30.12,NNE,23,4.5,4.9,76,0.00,,,0.00,WUHU216HW,2015-02-01 01:07:00,
2015-01-31 19:30:00,26.5,19.5,30.12,ENE,68,7.8,7.8,75,0.00,,,0.00,WUHU216HW,2015-02-01 01:30:00,
2015-01-31 19:32:00,26.5,19.5,30.12,ENE,68,7.8,7.8,75,0.00,,,0.00,WUHU216HW,2015-02-01 01:32:00,
2015-01-31 19:37:00,26.5,19.5,30.12,ENE,68,7.8,7.8,75,0.00,,,0.00,WUHU216HW,2015-02-01 01:37:00,
2015-01-31 20:00:00,26.3,18.1,30.12,East,90,5.4,6.9,71,0.00,,,0.00,WUHU216HW,2015-02-01 02:00:00,
2015-01-31 20:02:00,26.3,18.1,30.12,NNE,23,6.0,6.0,71,0.00,,,0.00,WUHU216HW,2015-02-01 02:02:00,
2015-01-31 20:07:00,26.3,18.1,30.12,East,90,5.4,6.9,71,0.00,,,0.00,WUHU216HW,2015-02-01 02:07:00,
2015-01-31 20:30:00,26.1,17.9,30.11,East,90,6.7,6.7,71,0.00,,,0.00,WUHU216HW,2015-02-01 02:30:00,
2015-01-31 20:32:00,26.1,17.6,30.11,East,90,6.7,6.7,70,0.00,,,0.00,WUHU216HW,2015-02-01 02:32:00,
2015-01-31 20:37:00,26.1,17.9,30.11,East,90,6.7,6.7,71,0.00,,,0.00,WUHU216HW,2015-02-01 02:37:00,
2015-01-31 21:00:00,25.9,17.5,30.11,NNE,23,9.2,9.2,70,0.00,,,0.00,WUHU216HW,2015-02-01 03:00:00,
2015-01-31 21:02:00,25.9,17.5,30.11,East,90,8.1,8.1,70,0.00,,,0.00,WUHU216HW,2015-02-01 03:02:00,
2015-01-31 21:07:00,25.9,17.5,30.11,NNE,23,9.2,9.2,70,0.00,,,0.00,WUHU216HW,2015-02-01 03:07:00,
2015-01-31 21:30:00,25.6,17.1,30.11,NNW,338,7.6,7.6,70,0.00,,,0.00,WUHU216HW,2015-02-01 03:30:00,
2015-01-31 21:32:00,25.6,17.1,30.11,NE,45,2.5,2.5,70,0.00,,,0.00,WUHU216HW,2015-02-01 03:32:00,
2015-01-31 21:37:00,25.6,17.1,30.11,NNW,338,7.6,7.6,70,0.00,,,0.00,WUHU216HW,2015-02-01 03:37:00,
2015-01-31 22:00:00,25.6,17.1,30.12,NNE,23,7.6,7.6,70,0.00,,,0.00,WUHU216HW,2015-02-01 04:00:00,
2015-01-31 22:02:00,25.6,17.1,30.12,East,90,7.4,7.4,70,0.00,,,0.00,WUHU216HW,2015-02-01 04:02:00,
2015-01-31 22:07:00,25.6,17.1,30.12,NNE,23,7.6,7.6,70,0.00,,,0.00,WUHU216HW,2015-02-01 04:07:00,
2015-01-31 22:30:00,25.2,16.7,30.12,East,90,7.8,7.8,70,0.00,,,0.00,WUHU216HW,2015-02-01 04:30:00,
2015-01-31 22:32:00,25.2,16.7,30.12,ENE,68,6.5,6.5,70,0.00,,,0.00,WUHU216HW,2015-02-01 04:32:00,
2015-01-31 22:37:00,25.2,16.7,30.12,East,90,7.8,7.8,70,0.00,,,0.00,WUHU216HW,2015-02-01 04:37:00,
2015-01-31 23:00:00,24.8,16.0,30.12,East,90,7.6,8.3,69,0.00,,,0.00,WUHU216HW,2015-02-01 05:00:00,
2015-01-31 23:02:00,24.8,16.0,30.12,ENE,68,8.3,8.3,69,0.00,,,0.00,WUHU216HW,2015-02-01 05:02:00,
2015-01-31 23:07:00,24.8,16.0,30.12,East,90,7.6,8.3,69,0.00,,,0.00,WUHU216HW,2015-02-01 05:07:00,